Aydin, Turkey
Current Conditions -  °F | °C
As of 7:20 AM on Monday 20 Oct 2014 (Local Time) from LTFE Reporting Station
Clear Clear  
Wind Chill: 14°   Ceiling: Unl
Heat Index: 14°   Visibility: 6mi
Dew Point: -2°   Wind: 12mph
Humidity: 33%   Direction: 60°ENE
Pressure: 30.06"   Gusts: NA
Location:  37.86°N, 27.84°E
Report Text: LTFE 200420Z 06010KT CAVOK 14/M02 Q1018 NOSIG
Loading
Personal Weather Stations






























Interactive Weather Map
Tropical Storm Tracking
New forecast layout! Learn more

10-Day Weather Forecast

Advertisements
Track Severe Weather on mobile